Sheldon Springs, Vermont
Current Conditions -  °F | °C
As of 3:35 PM on Wednesday 26 Nov 2014 (Local Time) from KFSO Reporting Station
Light Snow Light Snow  
Wind Chill: 31°   Ceiling: 2100
Heat Index: 31°   Visibility: 7mi
Dew Point: 25°   Wind: 3mph
Humidity: 81%   Direction: 360°N
Pressure: 30.16"   Gusts: NA
Location:  44.91°N, 72.98°W
Report Text: KFSO 262035Z AUTO 36003KT 7SM -SN BKN021 BKN027 OVC032 M01/M04 A3016 RMK AO2 T10081037
Loading
Personal Weather Stations






























Interactive Weather Map New forecast layout! Learn more

10-Day Weather Forecast

Advertisements
Track Severe Weather on mobile